Time;durP1;ratioP1;P1;durP2;ratioP2;P2;SDS_P1;SDS_P2;PMS_P1;PMS_P2;Temp;Humidity;BMP_temperature;BMP_pressure;BME280_temperature;BME280_humidity;BME280_pressure;Samples;Min_cycle;Max_cycle;Signal;HPM_P1;HPM_P2
2023/03/09 00:00:08;;;;;;;9.40;6.35;;;;;8.20;98924.00;;;;5046895;28;20200;-76
2023/03/09 00:02:35;;;;;;;9.15;6.10;;;;;8.20;98929.00;;;;5037770;28;20199;-76
2023/03/09 00:05:03;;;;;;;9.35;6.50;;;;;8.20;98940.00;;;;5044741;28;20207;-76
2023/03/09 00:07:32;;;;;;;10.38;7.03;;;;;8.10;98953.00;;;;5045099;28;20234;-76
2023/03/09 00:09:59;;;;;;;10.75;6.97;;;;;8.10;98953.00;;;;5041658;28;20858;-76
2023/03/09 00:12:26;;;;;;;9.68;6.57;;;;;8.10;98953.00;;;;5040172;28;20203;-75
2023/03/09 00:14:54;;;;;;;9.63;6.88;;;;;8.10;98956.00;;;;5038714;28;20200;-76
2023/03/09 00:17:21;;;;;;;10.55;6.68;;;;;8.10;98960.00;;;;5039942;28;20682;-75
2023/03/09 00:19:49;;;;;;;10.13;7.05;;;;;8.10;98965.00;;;;5037497;28;20191;-75
2023/03/09 00:22:16;;;;;;;10.38;6.60;;;;;8.10;98961.00;;;;5037860;28;20697;-76
2023/03/09 00:24:46;;;;;;;10.68;7.47;;;;;8.10;98968.00;;;;5041639;28;20250;-75
2023/03/09 00:27:14;;;;;;;9.43;6.13;;;;;8.10;98964.00;;;;5044002;28;20577;-75
2023/03/09 00:29:42;;;;;;;9.60;6.70;;;;;8.10;98984.00;;;;5044029;28;20743;-76
2023/03/09 00:32:09;;;;;;;8.60;6.20;;;;;8.10;98994.00;;;;5037122;28;20223;-76
2023/03/09 00:34:36;;;;;;;9.45;7.10;;;;;8.10;98986.00;;;;5040497;28;20200;-75
2023/03/09 00:37:04;;;;;;;9.98;6.63;;;;;8.00;98977.00;;;;5039815;28;20199;-75
2023/03/09 00:39:31;;;;;;;10.07;6.65;;;;;8.00;98976.00;;;;5037891;28;20210;-76
2023/03/09 00:42:00;;;;;;;9.20;6.43;;;;;8.00;98963.00;;;;5038436;28;20203;-76
2023/03/09 00:44:27;;;;;;;8.73;6.18;;;;;8.00;98974.00;;;;5040231;28;21779;-75
2023/03/09 00:46:54;;;;;;;8.57;5.78;;;;;8.00;98968.00;;;;5044957;28;20202;-75
2023/03/09 00:49:22;;;;;;;10.05;6.53;;;;;8.00;98973.00;;;;5040118;28;20693;-76
2023/03/09 00:51:49;;;;;;;8.02;5.88;;;;;8.00;98971.00;;;;5042649;28;20581;-76
2023/03/09 00:54:16;;;;;;;9.75;7.25;;;;;8.00;98973.00;;;;5040561;28;20211;-76
2023/03/09 00:56:44;;;;;;;9.77;6.72;;;;;8.00;98981.00;;;;5048662;28;20203;-76
2023/03/09 00:59:12;;;;;;;8.75;6.63;;;;;8.00;98984.00;;;;5045436;28;20200;-76
2023/03/09 01:01:41;;;;;;;9.68;6.65;;;;;8.00;98992.00;;;;5044454;28;20207;-75
2023/03/09 01:04:09;;;;;;;9.32;6.10;;;;;8.00;99003.00;;;;5040064;28;20196;-76
2023/03/09 01:06:36;;;;;;;9.50;6.40;;;;;8.00;99000.00;;;;5037384;28;20231;-76
2023/03/09 01:09:04;;;;;;;8.65;6.40;;;;;8.00;99016.00;;;;5038084;28;20231;-75
2023/03/09 01:11:31;;;;;;;9.65;6.68;;;;;8.00;99031.00;;;;5040096;28;20198;-75
2023/03/09 01:13:58;;;;;;;10.02;6.53;;;;;8.00;99041.00;;;;5042529;28;20204;-76
2023/03/09 01:16:27;;;;;;;10.25;6.60;;;;;8.00;99033.00;;;;5046012;28;20217;-76
2023/03/09 01:18:54;;;;;;;8.45;5.90;;;;;8.00;99016.00;;;;5037433;28;20203;-75
2023/03/09 01:21:22;;;;;;;9.57;6.40;;;;;8.00;99002.00;;;;5037039;28;20215;-76
2023/03/09 01:23:49;;;;;;;9.75;6.93;;;;;8.00;99007.00;;;;5037632;28;20201;-76
2023/03/09 01:26:16;;;;;;;8.85;6.90;;;;;8.00;99021.00;;;;5033651;28;20197;-76
2023/03/09 01:28:44;;;;;;;8.65;6.10;;;;;8.00;99027.00;;;;5028135;28;20211;-75
2023/03/09 01:31:16;;;;;;;10.57;6.45;;;;;8.00;99014.00;;;;5038442;28;20223;-76
2023/03/09 01:33:47;;;;;;;9.52;6.55;;;;;8.00;99016.00;;;;5028023;28;20203;-76
2023/03/09 01:36:16;;;;;;;9.48;5.72;;;;;8.00;99019.00;;;;5048247;28;20202;-75
2023/03/09 01:38:44;;;;;;;10.05;6.57;;;;;8.10;99029.00;;;;5028711;28;20219;-76
2023/03/09 01:41:12;;;;;;;10.80;6.50;;;;;8.10;99028.00;;;;5044625;28;20192;-76
2023/03/09 01:43:41;;;;;;;10.23;6.88;;;;;8.10;99043.00;;;;5042332;28;20204;-76
2023/03/09 01:46:38;;;;;;;8.85;6.13;;;;;8.00;99048.00;;;;5032507;28;20196;-76
2023/03/09 01:49:15;;;;;;;10.07;6.38;;;;;8.00;99059.00;;;;5032535;28;20602;-75
2023/03/09 01:51:48;;;;;;;9.60;6.47;;;;;8.10;99069.00;;;;5042846;28;20203;-76
2023/03/09 01:54:20;;;;;;;9.20;6.25;;;;;8.10;99062.00;;;;5032642;28;20196;-76
2023/03/09 01:56:52;;;;;;;7.50;5.68;;;;;8.10;99058.00;;;;5037428;28;20203;-76
2023/03/09 01:59:21;;;;;;;9.30;6.63;;;;;8.10;99057.00;;;;5048801;28;20206;-76
2023/03/09 02:01:49;;;;;;;9.05;6.82;;;;;8.20;99076.00;;;;5039700;28;20210;-77
2023/03/09 02:04:23;;;;;;;9.70;6.53;;;;;8.10;99083.00;;;;5043783;28;20202;-76
2023/03/09 02:06:50;;;;;;;9.30;6.03;;;;;8.20;99073.00;;;;5041978;28;20233;-76
2023/03/09 02:09:30;;;;;;;9.98;6.57;;;;;8.10;99057.00;;;;5042303;28;20195;-76
2023/03/09 02:11:59;;;;;;;8.80;6.10;;;;;8.20;99064.00;;;;5040725;28;20194;-76
2023/03/09 02:14:26;;;;;;;10.15;6.63;;;;;8.20;99063.00;;;;5043525;28;20575;-76
2023/03/09 02:16:54;;;;;;;8.15;6.15;;;;;8.30;99063.00;;;;5043534;28;20188;-75
2023/03/09 02:19:37;;;;;;;9.05;5.90;;;;;8.20;99065.00;;;;5039988;28;20199;-75
2023/03/09 02:22:04;;;;;;;10.10;6.60;;;;;8.30;99082.00;;;;5041034;28;20219;-75
2023/03/09 02:24:42;;;;;;;9.30;6.07;;;;;8.20;99088.00;;;;5041005;28;20200;-75
2023/03/09 02:27:15;;;;;;;9.65;7.05;;;;;8.20;99096.00;;;;5050250;28;20195;-75
2023/03/09 02:29:43;;;;;;;10.45;6.95;;;;;8.20;99092.00;;;;5045658;28;20224;-75
2023/03/09 02:32:10;;;;;;;9.48;6.28;;;;;8.20;99091.00;;;;5041449;28;20195;-75
2023/03/09 02:34:37;;;;;;;9.40;6.97;;;;;8.20;99105.00;;;;5041737;28;20192;-75
2023/03/09 02:37:21;;;;;;;8.45;6.20;;;;;8.20;99113.00;;;;5042114;28;20196;-75
2023/03/09 02:39:50;;;;;;;11.20;6.93;;;;;8.20;99106.00;;;;5039581;28;20202;-75
2023/03/09 02:42:19;;;;;;;11.23;6.20;;;;;8.20;99095.00;;;;5041688;28;21614;-75
2023/03/09 02:44:47;;;;;;;10.10;6.78;;;;;8.20;99076.00;;;;5040580;28;20187;-75
2023/03/09 02:47:18;;;;;;;9.45;6.65;;;;;8.20;99098.00;;;;5042138;28;20202;-75
2023/03/09 02:49:45;;;;;;;8.82;6.32;;;;;8.20;99095.00;;;;5044378;28;20223;-74
2023/03/09 02:52:12;;;;;;;9.25;6.65;;;;;8.20;99107.00;;;;5047638;28;20206;-75
2023/03/09 02:54:40;;;;;;;9.30;6.20;;;;;8.20;99094.00;;;;5045194;28;20200;-74
2023/03/09 02:57:07;;;;;;;10.10;6.85;;;;;8.20;99107.00;;;;5046768;28;20204;-75
2023/03/09 02:59:36;;;;;;;10.73;7.15;;;;;8.20;99110.00;;;;5048464;28;20261;-75
2023/03/09 03:02:03;;;;;;;12.32;7.50;;;;;8.20;99114.00;;;;5040394;28;20629;-75
2023/03/09 03:04:31;;;;;;;10.05;6.63;;;;;8.20;99116.00;;;;5038537;28;20200;-75
2023/03/09 03:06:58;;;;;;;9.38;6.82;;;;;8.20;99125.00;;;;5045812;28;20239;-75
2023/03/09 03:09:26;;;;;;;9.77;6.35;;;;;8.20;99128.00;;;;5040629;28;20196;-75
2023/03/09 03:11:55;;;;;;;9.95;6.38;;;;;8.20;99127.00;;;;5045217;28;20219;-75
2023/03/09 03:14:22;;;;;;;11.38;6.78;;;;;8.30;99128.00;;;;5045897;28;20196;-75
2023/03/09 03:16:50;;;;;;;11.52;7.32;;;;;8.30;99137.00;;;;5044757;28;20195;-75
2023/03/09 03:19:18;;;;;;;8.52;5.90;;;;;8.30;99132.00;;;;5046346;28;20204;-75
2023/03/09 03:21:47;;;;;;;11.63;7.30;;;;;8.30;99137.00;;;;5038814;28;20256;-75
2023/03/09 03:24:15;;;;;;;9.00;6.35;;;;;8.30;99136.00;;;;5044742;28;20211;-75
2023/03/09 03:26:43;;;;;;;10.13;6.22;;;;;8.30;99140.00;;;;5039334;28;20206;-75
2023/03/09 03:29:10;;;;;;;10.65;7.13;;;;;8.40;99147.00;;;;5041040;28;20607;-75
2023/03/09 03:31:37;;;;;;;10.68;7.38;;;;;8.40;99157.00;;;;5049542;28;20227;-75
2023/03/09 03:34:06;;;;;;;11.70;6.93;;;;;8.40;99156.00;;;;5049506;28;20246;-75
2023/03/09 03:36:33;;;;;;;10.30;7.15;;;;;8.40;99154.00;;;;5047559;28;20192;-75
2023/03/09 03:39:00;;;;;;;11.95;7.45;;;;;8.40;99153.00;;;;5049418;28;20204;-75
2023/03/09 03:41:28;;;;;;;9.00;5.97;;;;;8.50;99156.00;;;;5049247;28;20196;-75
2023/03/09 03:43:55;;;;;;;8.70;6.43;;;;;8.50;99162.00;;;;5032355;28;20204;-75
2023/03/09 03:46:22;;;;;;;10.98;7.45;;;;;8.50;99160.00;;;;5034293;28;20201;-75
2023/03/09 03:48:50;;;;;;;10.25;6.60;;;;;8.50;99161.00;;;;5049247;28;20200;-74
2023/03/09 03:51:19;;;;;;;11.05;7.22;;;;;8.50;99161.00;;;;5049411;28;20227;-75
2023/03/09 03:53:47;;;;;;;10.75;6.70;;;;;8.50;99157.00;;;;5047451;28;20200;-75
2023/03/09 03:56:14;;;;;;;10.07;6.82;;;;;8.50;99166.00;;;;5037021;28;20206;-75
2023/03/09 03:58:41;;;;;;;10.85;6.78;;;;;8.60;99182.00;;;;5049362;28;20211;-75
2023/03/09 04:01:10;;;;;;;9.07;6.30;;;;;8.60;99190.00;;;;5045959;28;20286;-75
2023/03/09 04:03:37;;;;;;;10.82;7.05;;;;;8.60;99193.00;;;;5040511;28;20199;-75
2023/03/09 04:06:05;;;;;;;11.35;6.93;;;;;8.60;99195.00;;;;5036798;28;20206;-75
2023/03/09 04:08:34;;;;;;;10.55;6.70;;;;;8.60;99194.00;;;;5036977;28;20230;-75
2023/03/09 04:11:06;;;;;;;12.35;7.68;;;;;8.60;99196.00;;;;5037145;28;20230;-75
2023/03/09 04:13:34;;;;;;;11.00;7.32;;;;;8.60;99197.00;;;;5037403;28;20215;-75
2023/03/09 04:16:01;;;;;;;9.38;6.70;;;;;8.60;99199.00;;;;5038131;28;20569;-75
2023/03/09 04:18:29;;;;;;;12.02;7.88;;;;;8.60;99199.00;;;;5040124;28;20207;-75
2023/03/09 04:20:56;;;;;;;11.52;7.93;;;;;8.60;99197.00;;;;5039847;28;20206;-75
2023/03/09 04:23:24;;;;;;;10.93;7.13;;;;;8.70;99203.00;;;;5048297;28;20219;-75
2023/03/09 04:26:00;;;;;;;9.73;6.68;;;;;8.60;99217.00;;;;5044757;28;20253;-75
2023/03/09 04:28:28;;;;;;;11.07;6.97;;;;;8.70;99223.00;;;;5034567;28;20203;-75
2023/03/09 04:30:56;;;;;;;10.48;7.18;;;;;8.70;99243.00;;;;5048382;28;20231;-75
2023/03/09 04:33:24;;;;;;;10.45;6.60;;;;;8.70;99245.00;;;;5040175;28;21951;-75
2023/03/09 04:35:51;;;;;;;9.82;7.03;;;;;8.70;99253.00;;;;5041663;28;20684;-75
2023/03/09 04:38:19;;;;;;;10.95;7.13;;;;;8.70;99262.00;;;;5040968;28;20192;-75
2023/03/09 04:40:46;;;;;;;8.90;6.57;;;;;8.70;99263.00;;;;5040767;28;20905;-75
2023/03/09 04:43:14;;;;;;;11.60;7.18;;;;;8.70;99271.00;;;;5039798;28;20196;-75
2023/03/09 04:45:42;;;;;;;12.18;8.13;;;;;8.70;99280.00;;;;5044052;28;20204;-75
2023/03/09 04:48:09;;;;;;;11.07;7.40;;;;;8.70;99281.00;;;;5043022;28;20195;-75
2023/03/09 04:50:36;;;;;;;9.30;6.18;;;;;8.70;99276.00;;;;5036101;28;20227;-75
2023/03/09 04:53:04;;;;;;;9.35;6.32;;;;;8.70;99286.00;;;;5038484;28;20194;-75
2023/03/09 04:55:31;;;;;;;10.05;6.72;;;;;8.70;99281.00;;;;5038560;28;20200;-75
2023/03/09 04:57:58;;;;;;;10.32;6.65;;;;;8.70;99287.00;;;;5037975;28;20211;-75
2023/03/09 05:00:27;;;;;;;9.27;6.60;;;;;8.70;99284.00;;;;5047842;28;20203;-75
2023/03/09 05:02:54;;;;;;;11.02;6.82;;;;;8.70;99280.00;;;;5043225;28;20205;-75
2023/03/09 05:05:22;;;;;;;10.43;6.95;;;;;8.70;99279.00;;;;5039411;28;20206;-75
2023/03/09 05:07:49;;;;;;;10.38;7.22;;;;;8.70;99275.00;;;;5037911;28;20231;-75
2023/03/09 05:10:17;;;;;;;9.20;6.57;;;;;8.70;99265.00;;;;5038590;28;20196;-75
2023/03/09 05:12:44;;;;;;;10.05;6.97;;;;;8.70;99259.00;;;;5038115;28;21064;-75
2023/03/09 05:15:12;;;;;;;10.50;7.15;;;;;8.70;99271.00;;;;5038596;28;20204;-75
2023/03/09 05:17:41;;;;;;;10.35;7.32;;;;;8.70;99262.00;;;;5039562;28;20230;-75
2023/03/09 05:20:11;;;;;;;9.52;5.82;;;;;8.70;99273.00;;;;5038927;28;20199;-75
2023/03/09 05:22:38;;;;;;;10.70;7.20;;;;;8.70;99273.00;;;;5037263;28;20589;-75
2023/03/09 05:25:07;;;;;;;11.18;7.10;;;;;8.70;99288.00;;;;5038864;28;20204;-75
2023/03/09 05:27:34;;;;;;;11.95;7.40;;;;;8.80;99298.00;;;;5036603;28;20215;-75
2023/03/09 05:30:01;;;;;;;10.35;6.88;;;;;8.80;99305.00;;;;5038018;28;20202;-75
2023/03/09 05:32:30;;;;;;;11.70;7.53;;;;;8.80;99306.00;;;;5042055;28;20244;-75
2023/03/09 05:34:59;;;;;;;11.82;7.78;;;;;8.80;99294.00;;;;5044528;28;20253;-75
2023/03/09 05:37:26;;;;;;;10.00;6.88;;;;;8.80;99299.00;;;;5043960;28;20195;-75
2023/03/09 05:39:53;;;;;;;9.50;6.45;;;;;8.80;99293.00;;;;5048407;28;20208;-75
2023/03/09 05:42:21;;;;;;;9.70;6.97;;;;;8.80;99290.00;;;;5035527;28;20250;-74
2023/03/09 05:44:48;;;;;;;9.02;6.40;;;;;8.80;99292.00;;;;5032325;28;20290;-75
2023/03/09 05:47:15;;;;;;;11.57;7.22;;;;;8.80;99290.00;;;;5038367;28;20204;-75
2023/03/09 05:49:43;;;;;;;9.98;6.53;;;;;8.80;99282.00;;;;5046411;28;20203;-75
2023/03/09 05:52:11;;;;;;;9.40;6.18;;;;;8.70;99287.00;;;;5040845;28;20223;-75
2023/03/09 05:54:39;;;;;;;10.77;7.07;;;;;8.80;99294.00;;;;5044453;28;20195;-75
2023/03/09 05:57:06;;;;;;;11.07;7.13;;;;;8.80;99305.00;;;;5042709;28;20685;-75
2023/03/09 05:59:34;;;;;;;9.30;6.80;;;;;8.80;99300.00;;;;5045022;28;20245;-75
2023/03/09 06:02:01;;;;;;;9.15;5.93;;;;;8.80;99298.00;;;;5046812;28;20200;-75
2023/03/09 06:04:28;;;;;;;10.25;7.25;;;;;8.80;99296.00;;;;5041583;28;20206;-75
2023/03/09 06:06:55;;;;;;;12.77;7.68;;;;;8.80;99298.00;;;;5036175;28;20231;-75
2023/03/09 06:09:25;;;;;;;11.55;7.45;;;;;8.70;99318.00;;;;5035641;28;20674;-75
2023/03/09 06:11:52;;;;;;;11.15;6.90;;;;;8.80;99337.00;;;;5037014;28;20230;-75
2023/03/09 06:14:20;;;;;;;11.10;6.78;;;;;8.80;99343.00;;;;5037212;28;20196;-75
2023/03/09 06:16:47;;;;;;;11.07;6.95;;;;;8.80;99347.00;;;;5037915;28;20207;-74
2023/03/09 06:19:14;;;;;;;10.82;7.55;;;;;8.80;99352.00;;;;5037616;28;20204;-74
2023/03/09 06:21:42;;;;;;;9.63;6.88;;;;;8.80;99351.00;;;;5037173;28;20226;-74
2023/03/09 06:24:10;;;;;;;8.85;6.20;;;;;8.80;99353.00;;;;5037433;28;20200;-74
2023/03/09 06:26:39;;;;;;;10.60;6.88;;;;;8.80;99348.00;;;;5043979;28;20196;-74
2023/03/09 06:29:06;;;;;;;9.60;5.88;;;;;8.80;99350.00;;;;5045749;28;20204;-74
2023/03/09 06:31:33;;;;;;;10.75;7.15;;;;;8.90;99349.00;;;;5048656;28;20220;-74
2023/03/09 06:34:01;;;;;;;10.23;6.80;;;;;8.90;99350.00;;;;5040439;28;20196;-73
2023/03/09 06:36:28;;;;;;;10.88;6.93;;;;;8.90;99353.00;;;;5043245;28;20199;-74
2023/03/09 06:38:55;;;;;;;11.05;7.20;;;;;8.90;99375.00;;;;5041003;28;20202;-74
2023/03/09 06:41:29;;;;;;;11.82;7.63;;;;;9.00;99385.00;;;;5040051;28;20203;-74
2023/03/09 06:43:58;;;;;;;11.85;6.97;;;;;9.00;99391.00;;;;5047656;28;20200;-73
2023/03/09 06:46:25;;;;;;;9.63;6.53;;;;;9.00;99395.00;;;;5045063;28;20207;-73
2023/03/09 06:48:53;;;;;;;12.30;8.38;;;;;9.00;99404.00;;;;5044472;28;20593;-73
2023/03/09 06:51:20;;;;;;;11.60;8.05;;;;;9.10;99400.00;;;;5046168;28;20230;-74
2023/03/09 06:53:47;;;;;;;9.35;6.45;;;;;9.10;99406.00;;;;5044017;28;20203;-74
2023/03/09 06:56:15;;;;;;;10.68;7.35;;;;;9.10;99419.00;;;;5044270;28;20280;-74
2023/03/09 06:58:42;;;;;;;11.38;7.40;;;;;9.10;99428.00;;;;5041193;28;20704;-75
2023/03/09 07:01:14;;;;;;;10.65;6.88;;;;;9.10;99429.00;;;;5043199;28;20646;-75
2023/03/09 07:03:41;;;;;;;10.45;7.43;;;;;9.20;99438.00;;;;5050829;28;20610;-75
2023/03/09 07:06:09;;;;;;;10.18;6.95;;;;;9.20;99448.00;;;;5041206;28;20286;-74
2023/03/09 07:08:36;;;;;;;10.93;7.68;;;;;9.20;99446.00;;;;5039988;28;20238;-74
2023/03/09 07:11:03;;;;;;;11.43;7.20;;;;;9.30;99453.00;;;;5039990;28;20219;-74
2023/03/09 07:13:32;;;;;;;9.90;6.70;;;;;9.30;99455.00;;;;5039874;28;20195;-74
2023/03/09 07:16:02;;;;;;;11.27;7.32;;;;;9.30;99463.00;;;;5047636;28;20203;-74
2023/03/09 07:18:31;;;;;;;10.15;7.10;;;;;9.30;99457.00;;;;5049276;28;20200;-75
2023/03/09 07:21:00;;;;;;;10.90;7.50;;;;;9.40;99464.00;;;;5048377;28;20203;-75
2023/03/09 07:23:28;;;;;;;13.10;7.95;;;;;9.40;99469.00;;;;5047326;28;20226;-75
2023/03/09 07:25:55;;;;;;;11.57;7.43;;;;;9.50;99473.00;;;;5040974;28;20291;-75
2023/03/09 07:28:22;;;;;;;11.32;8.00;;;;;9.50;99473.00;;;;5044322;28;20203;-75
2023/03/09 07:30:50;;;;;;;11.50;7.68;;;;;9.50;99460.00;;;;5044200;28;20211;-75
2023/03/09 07:33:17;;;;;;;13.23;7.10;;;;;9.50;99461.00;;;;5031205;28;20203;-75
2023/03/09 07:35:46;;;;;;;10.57;7.78;;;;;9.50;99461.00;;;;5051497;28;20196;-75
2023/03/09 07:38:13;;;;;;;12.20;8.25;;;;;9.60;99459.00;;;;5049373;28;20206;-75
2023/03/09 07:40:41;;;;;;;11.30;7.43;;;;;9.60;99468.00;;;;5046656;28;20196;-75
2023/03/09 07:43:10;;;;;;;12.25;7.95;;;;;9.60;99467.00;;;;5039933;28;20200;-75
2023/03/09 07:45:39;;;;;;;13.90;9.20;;;;;9.70;99482.00;;;;5046191;28;20726;-75
2023/03/09 07:48:07;;;;;;;12.77;7.93;;;;;9.70;99492.00;;;;5045237;28;20203;-75
2023/03/09 07:50:35;;;;;;;12.55;8.23;;;;;9.80;99504.00;;;;5048432;28;20315;-76
2023/03/09 07:53:03;;;;;;;13.32;8.43;;;;;9.80;99513.00;;;;5048111;28;20226;-74
2023/03/09 07:55:34;;;;;;;11.35;7.97;;;;;9.80;99516.00;;;;5045566;28;20208;-75
2023/03/09 07:58:02;;;;;;;11.50;8.00;;;;;9.90;99521.00;;;;5046402;28;20305;-75
2023/03/09 08:00:29;;;;;;;13.15;8.45;;;;;9.90;99518.00;;;;5059041;28;20207;-76
2023/03/09 08:02:57;;;;;;;12.70;8.23;;;;;9.90;99517.00;;;;5049168;28;20211;-75
2023/03/09 08:05:26;;;;;;;12.63;8.18;;;;;10.00;99517.00;;;;5047962;28;20211;-76
2023/03/09 08:07:54;;;;;;;12.32;8.32;;;;;10.00;99516.00;;;;5045466;28;20219;-76
2023/03/09 08:10:23;;;;;;;11.65;7.68;;;;;10.00;99509.00;;;;5048697;28;20234;-76
2023/03/09 08:12:51;;;;;;;12.55;9.15;;;;;10.10;99514.00;;;;5055051;28;20235;-76
2023/03/09 08:15:22;;;;;;;13.50;8.52;;;;;10.10;99517.00;;;;5054097;28;20192;-76
2023/03/09 08:17:49;;;;;;;11.73;7.90;;;;;10.20;99517.00;;;;5047730;28;20200;-76
2023/03/09 08:20:17;;;;;;;11.85;7.78;;;;;10.20;99512.00;;;;5049430;28;20273;-77
2023/03/09 08:22:45;;;;;;;13.55;8.55;;;;;10.20;99530.00;;;;5046340;28;20222;-76
2023/03/09 08:25:12;;;;;;;12.68;8.65;;;;;10.30;99529.00;;;;5045530;28;20299;-76
2023/03/09 08:27:43;;;;;;;11.18;7.70;;;;;10.30;99532.00;;;;5047495;28;20943;-74
2023/03/09 08:30:12;;;;;;;13.90;9.15;;;;;10.30;99542.00;;;;5063981;28;20206;-74
2023/03/09 08:32:40;;;;;;;14.02;9.02;;;;;10.40;99553.00;;;;5046635;28;20228;-74
2023/03/09 08:35:08;;;;;;;12.52;8.18;;;;;10.40;99547.00;;;;5047389;28;20196;-75
2023/03/09 08:37:35;;;;;;;13.15;8.15;;;;;10.40;99543.00;;;;5045497;28;20207;-74
2023/03/09 08:40:02;;;;;;;13.27;8.27;;;;;10.50;99563.00;;;;5047328;28;20944;-75
2023/03/09 08:42:30;;;;;;;13.65;8.70;;;;;10.50;99572.00;;;;5047462;28;20301;-75
2023/03/09 08:44:59;;;;;;;13.90;9.13;;;;;10.50;99572.00;;;;5043805;28;20195;-75
2023/03/09 08:47:26;;;;;;;13.68;9.48;;;;;10.50;99572.00;;;;5048179;28;20203;-74
2023/03/09 08:49:53;;;;;;;11.88;7.97;;;;;10.60;99580.00;;;;5043259;28;20203;-75
2023/03/09 08:52:21;;;;;;;12.25;8.60;;;;;10.60;99589.00;;;;5047458;28;20212;-75
2023/03/09 08:54:49;;;;;;;12.43;8.05;;;;;10.60;99592.00;;;;5047855;28;20207;-75
2023/03/09 08:57:16;;;;;;;12.35;8.30;;;;;10.60;99592.00;;;;5048554;28;20307;-75
2023/03/09 08:59:44;;;;;;;13.15;8.73;;;;;10.60;99579.00;;;;5045590;28;20211;-75
2023/03/09 09:02:14;;;;;;;14.35;9.27;;;;;10.70;99587.00;;;;5047570;28;20195;-75
2023/03/09 09:04:42;;;;;;;13.48;8.63;;;;;10.70;99586.00;;;;5047423;28;20191;-75
2023/03/09 09:07:09;;;;;;;12.65;8.38;;;;;10.70;99569.00;;;;5036381;28;20224;-74
2023/03/09 09:09:36;;;;;;;13.07;8.68;;;;;10.70;99573.00;;;;5045775;28;20203;-74
2023/03/09 09:12:04;;;;;;;12.30;8.50;;;;;10.80;99569.00;;;;5046419;28;20223;-75
2023/03/09 09:14:31;;;;;;;12.63;8.35;;;;;10.80;99581.00;;;;5043628;28;20206;-75
2023/03/09 09:16:58;;;;;;;12.75;8.10;;;;;10.80;99587.00;;;;5048083;28;20202;-75
2023/03/09 09:19:27;;;;;;;13.13;8.65;;;;;10.90;99588.00;;;;5046426;28;20207;-74
2023/03/09 09:21:56;;;;;;;15.18;9.77;;;;;10.90;99597.00;;;;5046513;28;20223;-74
2023/03/09 09:24:23;;;;;;;13.80;9.07;;;;;11.00;99610.00;;;;5044218;28;20202;-74
2023/03/09 09:26:50;;;;;;;13.20;8.52;;;;;11.00;99614.00;;;;5046658;28;20562;-74
2023/03/09 09:29:17;;;;;;;12.48;8.50;;;;;11.00;99634.00;;;;5047581;28;20202;-74
2023/03/09 09:31:45;;;;;;;13.02;8.25;;;;;11.00;99627.00;;;;5042909;28;20223;-74
2023/03/09 09:34:12;;;;;;;14.57;9.40;;;;;11.00;99630.00;;;;5047330;28;20192;-74
2023/03/09 09:36:42;;;;;;;13.05;8.63;;;;;11.00;99622.00;;;;5047904;28;20195;-74
2023/03/09 09:39:09;;;;;;;13.80;8.88;;;;;11.10;99626.00;;;;5044556;28;20215;-74
2023/03/09 09:41:42;;;;;;;14.10;8.95;;;;;11.10;99627.00;;;;5044896;28;20678;-74
2023/03/09 09:44:16;;;;;;;14.50;9.40;;;;;11.10;99621.00;;;;5047560;28;20196;-74
2023/03/09 09:46:45;;;;;;;13.30;8.95;;;;;11.10;99613.00;;;;5047268;28;20203;-74
2023/03/09 09:49:19;;;;;;;13.88;8.88;;;;;11.10;99623.00;;;;5045464;28;20204;-74
2023/03/09 09:52:02;;;;;;;13.80;8.68;;;;;11.10;99609.00;;;;5045463;28;20202;-74
2023/03/09 09:54:38;;;;;;;15.35;8.98;;;;;11.20;99620.00;;;;5048109;28;20203;-73
2023/03/09 09:57:10;;;;;;;15.82;9.57;;;;;11.30;99632.00;;;;5045465;28;20199;-74
2023/03/09 09:59:42;;;;;;;12.05;7.70;;;;;11.30;99631.00;;;;5047974;28;20261;-74
2023/03/09 10:02:35;;;;;;;12.48;9.13;;;;;11.30;99652.00;;;;5046820;28;20199;-74
2023/03/09 10:05:06;;;;;;;14.90;9.10;;;;;11.40;99648.00;;;;5038635;28;20551;-74
2023/03/09 10:07:39;;;;;;;13.40;8.63;;;;;11.40;99635.00;;;;5044002;28;20230;-73
2023/03/09 10:10:11;;;;;;;12.50;8.95;;;;;11.40;99624.00;;;;5051837;28;20192;-75
2023/03/09 10:12:39;;;;;;;15.57;8.93;;;;;11.40;99639.00;;;;5049279;28;20436;-75
2023/03/09 10:15:12;;;;;;;13.15;8.05;;;;;11.50;99649.00;;;;5046141;28;20204;-75
2023/03/09 10:17:45;;;;;;;16.17;9.55;;;;;11.50;99632.00;;;;5050956;28;20192;-74
2023/03/09 10:20:18;;;;;;;14.93;8.35;;;;;11.50;99641.00;;;;5049997;28;20279;-75
2023/03/09 10:22:50;;;;;;;13.77;8.82;;;;;11.50;99639.00;;;;5049221;28;20226;-74
2023/03/09 10:25:21;;;;;;;13.52;8.80;;;;;11.50;99632.00;;;;5051460;28;20195;-75
2023/03/09 10:27:55;;;;;;;12.30;8.13;;;;;11.50;99632.00;;;;5043802;28;20212;-75
2023/03/09 10:30:32;;;;;;;13.70;8.90;;;;;11.60;99632.00;;;;5048729;28;20253;-75
2023/03/09 10:33:04;;;;;;;14.80;9.10;;;;;11.60;99640.00;;;;5037238;28;20660;-75
2023/03/09 10:35:38;;;;;;;13.45;8.02;;;;;11.70;99624.00;;;;5042859;28;20199;-74
2023/03/09 10:38:13;;;;;;;14.70;8.60;;;;;11.70;99634.00;;;;5050326;28;20199;-74
2023/03/09 10:40:44;;;;;;;12.85;8.00;;;;;11.80;99633.00;;;;5051172;28;20217;-74
2023/03/09 10:43:20;;;;;;;12.02;8.00;;;;;11.80;99636.00;;;;5047935;28;20195;-74
2023/03/09 10:45:48;;;;;;;12.20;7.85;;;;;11.80;99641.00;;;;5049935;28;20210;-75
2023/03/09 10:48:22;;;;;;;16.50;9.55;;;;;11.80;99643.00;;;;5040201;28;20200;-75
2023/03/09 10:50:58;;;;;;;15.05;8.98;;;;;11.70;99636.00;;;;5051149;28;20200;-75
2023/03/09 10:53:35;;;;;;;13.52;8.45;;;;;11.70;99639.00;;;;5051708;28;20228;-74
2023/03/09 10:56:06;;;;;;;16.35;10.30;;;;;11.80;99635.00;;;;5049148;28;20318;-75
2023/03/09 10:58:34;;;;;;;15.52;9.60;;;;;11.80;99629.00;;;;5050340;28;21008;-75
2023/03/09 11:01:04;;;;;;;13.60;8.80;;;;;11.80;99645.00;;;;5050006;28;20216;-74
2023/03/09 11:03:37;;;;;;;15.35;9.43;;;;;11.80;99639.00;;;;5049276;28;20199;-75
2023/03/09 11:06:32;;;;;;;14.20;9.07;;;;;11.70;99647.00;;;;5048045;28;20203;-75
2023/03/09 11:09:11;;;;;;;14.73;8.45;;;;;11.70;99650.00;;;;5042239;28;20607;-75
2023/03/09 11:11:39;;;;;;;14.73;8.95;;;;;11.80;99650.00;;;;5049229;28;20767;-75
2023/03/09 11:14:26;;;;;;;13.00;8.70;;;;;11.70;99648.00;;;;5050239;28;20847;-74
2023/03/09 11:16:55;;;;;;;15.00;9.05;;;;;11.80;99647.00;;;;5046958;28;20195;-75
2023/03/09 11:19:23;;;;;;;14.68;9.05;;;;;11.80;99652.00;;;;5048218;28;20211;-75
2023/03/09 11:22:00;;;;;;;14.30;8.75;;;;;11.80;99667.00;;;;5043420;28;20223;-74
2023/03/09 11:24:33;;;;;;;13.82;8.57;;;;;11.80;99664.00;;;;5047914;28;20278;-75
2023/03/09 11:27:05;;;;;;;14.35;9.18;;;;;11.90;99664.00;;;;5046874;28;20191;-74
2023/03/09 11:29:40;;;;;;;14.88;9.25;;;;;11.90;99658.00;;;;5048387;28;20210;-75
2023/03/09 11:32:10;;;;;;;14.60;8.43;;;;;11.90;99657.00;;;;5051054;28;20194;-75
2023/03/09 11:34:41;;;;;;;14.93;8.50;;;;;11.90;99661.00;;;;5048702;28;20210;-75
2023/03/09 11:37:14;;;;;;;14.45;9.20;;;;;11.80;99654.00;;;;5051056;28;20215;-75
2023/03/09 11:39:49;;;;;;;15.38;9.40;;;;;11.80;99658.00;;;;5044519;28;20575;-75
2023/03/09 11:42:22;;;;;;;15.15;8.70;;;;;11.80;99654.00;;;;5050342;28;20205;-76
2023/03/09 11:44:55;;;;;;;13.55;8.32;;;;;11.80;99649.00;;;;5050124;28;20199;-76
2023/03/09 11:47:30;;;;;;;14.23;8.68;;;;;11.80;99645.00;;;;5050090;28;20668;-75
2023/03/09 11:50:01;;;;;;;15.27;8.90;;;;;11.80;99642.00;;;;5050392;28;20752;-76
2023/03/09 11:52:33;;;;;;;13.40;8.05;;;;;11.80;99640.00;;;;5047054;28;20227;-77
2023/03/09 11:55:05;;;;;;;14.18;9.38;;;;;11.80;99640.00;;;;5043277;28;20196;-75
2023/03/09 11:57:36;;;;;;;13.07;8.50;;;;;11.80;99630.00;;;;5050380;28;20195;-75
2023/03/09 12:00:08;;;;;;;14.50;9.57;;;;;11.80;99640.00;;;;5047782;28;20270;-74
2023/03/09 12:02:54;;;;;;;13.88;8.57;;;;;11.80;99641.00;;;;5049401;28;20203;-74
2023/03/09 12:05:23;;;;;;;14.05;8.50;;;;;11.90;99636.00;;;;5047354;28;20665;-74
2023/03/09 12:07:55;;;;;;;14.10;9.27;;;;;11.80;99642.00;;;;5046481;28;20235;-75
2023/03/09 12:10:28;;;;;;;14.18;8.98;;;;;11.80;99635.00;;;;5042805;28;20554;-75
2023/03/09 12:12:59;;;;;;;14.77;9.85;;;;;11.90;99633.00;;;;5047535;28;20226;-75
2023/03/09 12:15:33;;;;;;;13.65;9.20;;;;;11.80;99635.00;;;;5049054;28;20207;-75
2023/03/09 12:18:03;;;;;;;14.60;9.30;;;;;11.90;99632.00;;;;5045970;28;20199;-76
2023/03/09 12:20:34;;;;;;;13.80;8.48;;;;;11.80;99623.00;;;;5044064;28;20243;-76
2023/03/09 12:23:01;;;;;;;13.23;8.25;;;;;11.90;99626.00;;;;5048695;28;20235;-75
2023/03/09 12:25:30;;;;;;;13.27;8.60;;;;;11.80;99630.00;;;;5046632;28;20204;-76